Time;durP1;ratioP1;P1;durP2;ratioP2;P2;SDS_P1;SDS_P2;PMS_P1;PMS_P2;Temp;Humidity;BMP_temperature;BMP_pressure;BME280_temperature;BME280_humidity;BME280_pressure;Samples;Min_cycle;Max_cycle;Signal;HPM_P1;HPM_P2
2021/07/01 00:00:14;;;;;;;9.50;7.30;;;;;;;16.60;68.10;97114.88;5049801;28;20020;-77
2021/07/01 00:02:40;;;;;;;9.23;6.75;;;;;;;16.62;68.14;97120.66;5045379;28;20156;-76
2021/07/01 00:05:06;;;;;;;10.75;8.27;;;;;;;16.59;68.28;97117.81;5037111;28;20115;-76
2021/07/01 00:07:32;;;;;;;13.35;7.95;;;;;;;16.59;68.80;97113.34;5030791;28;20033;-77
2021/07/01 00:09:57;;;;;;;11.95;8.88;;;;;;;16.52;68.22;97117.38;5053005;28;20037;-77
2021/07/01 00:12:23;;;;;;;13.18;8.68;;;;;;;16.57;68.00;97115.47;5052805;28;20028;-77
2021/07/01 00:14:49;;;;;;;11.93;8.25;;;;;;;16.63;67.90;97114.31;5004506;28;20033;-77
2021/07/01 00:17:14;;;;;;;13.18;9.10;;;;;;;16.58;68.09;97111.75;5046981;28;20028;-77
2021/07/01 00:19:39;;;;;;;10.43;8.30;;;;;;;16.54;68.55;97121.28;5051616;28;20032;-76
2021/07/01 00:22:05;;;;;;;13.45;9.57;;;;;;;16.48;68.60;97110.06;5040066;28;20471;-77
2021/07/01 00:24:30;;;;;;;12.15;9.63;;;;;;;16.52;68.18;97115.53;5034346;28;20147;-77
2021/07/01 00:26:56;;;;;;;12.23;10.10;;;;;;;16.51;68.38;97116.59;5035848;28;20037;-77
2021/07/01 00:29:21;;;;;;;12.63;8.95;;;;;;;16.59;68.18;97120.44;5045821;28;20087;-77
2021/07/01 00:31:47;;;;;;;13.90;9.57;;;;;;;16.56;68.03;97119.16;5035026;28;20033;-77
2021/07/01 00:34:12;;;;;;;14.77;10.70;;;;;;;16.51;68.28;97108.72;5052962;28;20033;-77
2021/07/01 00:36:38;;;;;;;13.23;9.57;;;;;;;16.57;68.15;97125.19;5052849;28;20215;-77
2021/07/01 00:39:04;;;;;;;12.77;9.38;;;;;;;16.57;67.72;97119.94;5050248;28;20025;-77
2021/07/01 00:41:29;;;;;;;13.38;9.57;;;;;;;16.54;68.01;97117.88;5049804;28;20369;-77
2021/07/01 00:43:54;;;;;;;12.68;9.30;;;;;;;16.52;67.91;97115.53;5033088;28;20032;-76
2021/07/01 00:46:20;;;;;;;15.20;10.40;;;;;;;16.52;67.90;97112.91;5053023;28;20473;-77
2021/07/01 00:48:45;;;;;;;12.55;9.82;;;;;;;16.51;68.21;97116.59;5052923;28;20033;-77
2021/07/01 00:51:11;;;;;;;13.80;10.07;;;;;;;16.51;68.46;97115.81;5046648;28;20032;-77
2021/07/01 00:53:37;;;;;;;12.85;8.32;;;;;;;16.54;67.90;97116.03;5051551;28;20744;-78
2021/07/01 00:56:05;;;;;;;13.35;9.02;;;;;;;16.53;68.04;97117.09;5052579;28;20055;-76
2021/07/01 00:58:31;;;;;;;11.65;8.77;;;;;;;16.55;67.73;97116.81;5050042;28;20375;-77
2021/07/01 01:01:04;;;;;;;12.88;9.00;;;;;;;16.49;68.29;97124.00;5037564;28;20102;-77
2021/07/01 01:03:38;;;;;;;11.68;8.63;;;;;;;16.35;68.12;97123.91;5037125;28;20068;-77
2021/07/01 01:06:05;;;;;;;11.90;8.60;;;;;;;16.50;67.83;97124.75;5052107;28;20086;-77
2021/07/01 01:08:31;;;;;;;12.75;8.40;;;;;;;16.51;68.04;97121.84;5070487;28;20318;-77
2021/07/01 01:10:59;;;;;;;11.57;8.18;;;;;;;16.40;67.93;97118.59;5068901;28;20063;-77
2021/07/01 01:13:25;;;;;;;8.75;7.15;;;;;;;16.53;67.20;97119.72;5052918;28;20024;-77
2021/07/01 01:15:55;;;;;;;11.00;8.25;;;;;;;16.41;67.41;97117.50;5052128;28;20060;-77
2021/07/01 01:18:21;;;;;;;9.82;8.20;;;;;;;16.50;67.26;97115.03;5046182;28;20032;-77
2021/07/01 01:20:48;;;;;;;9.95;7.68;;;;;;;16.47;68.07;97126.13;5048221;28;20083;-77
2021/07/01 01:23:13;;;;;;;9.80;7.65;;;;;;;16.44;68.05;97121.44;5034899;28;20036;-77
2021/07/01 01:25:38;;;;;;;9.90;6.95;;;;;;;16.42;67.94;97118.31;5069011;28;20105;-76
2021/07/01 01:28:04;;;;;;;8.63;7.30;;;;;;;16.42;67.70;97118.31;5070059;28;20041;-77
2021/07/01 01:30:29;;;;;;;10.05;8.07;;;;;;;16.37;68.17;97110.50;5049919;28;20026;-77
2021/07/01 01:32:55;;;;;;;10.50;7.45;;;;;;;16.37;68.41;97110.50;5049978;28;20048;-77
2021/07/01 01:35:20;;;;;;;10.30;8.25;;;;;;;16.44;67.49;97119.56;5031875;28;20441;-77
2021/07/01 01:37:45;;;;;;;10.25;7.88;;;;;;;16.38;67.75;97112.84;5032532;28;20029;-77
2021/07/01 01:40:11;;;;;;;9.07;7.80;;;;;;;16.38;68.33;97112.84;5046831;28;20025;-77
2021/07/01 01:42:37;;;;;;;11.27;8.23;;;;;;;16.50;67.53;97115.03;5051600;28;20036;-77
2021/07/01 01:45:03;;;;;;;9.60;7.63;;;;;;;16.43;67.71;97119.84;5051897;28;20097;-77
2021/07/01 01:47:29;;;;;;;10.93;7.60;;;;;;;16.34;68.74;97111.81;5028496;28;20126;-77
2021/07/01 01:49:54;;;;;;;11.10;8.32;;;;;;;16.38;68.58;97115.47;5033435;28;20079;-77
2021/07/01 01:52:19;;;;;;;12.38;8.30;;;;;;;16.43;68.29;97110.16;5045195;28;20380;-77
2021/07/01 01:54:45;;;;;;;9.43;7.35;;;;;;;16.40;68.07;97115.16;5056729;28;20025;-77
2021/07/01 01:57:10;;;;;;;12.45;8.15;;;;;;;16.40;68.42;97118.59;5051830;28;20106;-77
2021/07/01 01:59:36;;;;;;;10.70;7.60;;;;;;;16.45;68.30;97122.97;5038164;28;20032;-76
2021/07/01 02:02:01;;;;;;;9.65;7.82;;;;;;;16.41;68.59;97116.72;5051635;28;20035;-77
2021/07/01 02:04:27;;;;;;;13.00;7.80;;;;;;;16.39;68.13;97119.66;5048495;28;20099;-77
2021/07/01 02:06:54;;;;;;;11.48;8.32;;;;;;;16.34;68.40;97116.31;5068262;28;20056;-77
2021/07/01 02:09:21;;;;;;;10.15;7.95;;;;;;;16.40;68.28;97129.09;5051812;28;20029;-77
2021/07/01 02:11:47;;;;;;;12.77;8.65;;;;;;;16.40;68.06;97121.22;5015320;28;20049;-77
2021/07/01 02:14:12;;;;;;;9.45;6.90;;;;;;;16.39;68.19;97124.13;5015708;28;20216;-77
2021/07/01 02:16:37;;;;;;;10.63;8.30;;;;;;;16.35;68.28;97109.97;5027283;28;20515;-77
2021/07/01 02:19:03;;;;;;;8.13;7.15;;;;;;;16.37;68.61;97118.38;5031126;28;20025;-77
2021/07/01 02:21:28;;;;;;;11.80;8.07;;;;;;;16.33;68.71;97118.16;5030621;28;20039;-77
2021/07/01 02:23:54;;;;;;;11.13;8.75;;;;;;;16.37;68.54;97126.25;5030105;28;20059;-76
2021/07/01 02:26:19;;;;;;;12.00;8.35;;;;;;;16.38;68.20;97117.28;5051513;28;20483;-76
2021/07/01 02:28:44;;;;;;;10.80;8.93;;;;;;;16.38;67.55;97120.72;5067995;28;20037;-77
2021/07/01 02:31:10;;;;;;;10.63;8.07;;;;;;;16.36;68.10;97114.16;5034655;28;20090;-77
2021/07/01 02:33:35;;;;;;;9.40;7.90;;;;;;;16.35;68.57;97120.47;5038220;28;20464;-78
2021/07/01 02:36:01;;;;;;;10.85;7.47;;;;;;;16.34;68.37;97124.97;5018606;28;20063;-76
2021/07/01 02:38:26;;;;;;;10.52;8.55;;;;;;;16.38;68.46;97125.19;5034951;28;20059;-77
2021/07/01 02:40:54;;;;;;;9.60;8.20;;;;;;;16.38;68.56;97125.19;5069019;28;20553;-77
2021/07/01 02:43:19;;;;;;;10.02;8.05;;;;;;;16.31;68.77;97122.13;5068138;28;20037;-77
2021/07/01 02:45:45;;;;;;;8.68;7.00;;;;;;;16.39;68.22;97126.75;5069267;28;20097;-77
2021/07/01 02:48:10;;;;;;;9.88;7.53;;;;;;;16.43;67.63;97125.09;5072365;28;20033;-77
2021/07/01 02:50:35;;;;;;;10.60;7.80;;;;;;;16.45;67.89;97128.22;5050889;28;20020;-77
2021/07/01 02:53:01;;;;;;;9.63;7.35;;;;;;;16.41;67.98;97132.50;5034732;28;20032;-77
2021/07/01 02:55:26;;;;;;;9.75;7.25;;;;;;;16.41;68.28;97141.16;5035106;28;20694;-76
2021/07/01 02:57:52;;;;;;;9.48;7.00;;;;;;;16.43;67.98;97135.63;5051227;28;20411;-77
2021/07/01 03:00:17;;;;;;;9.18;6.93;;;;;;;16.40;68.33;97136.19;5051082;28;20043;-76
2021/07/01 03:02:43;;;;;;;10.05;7.28;;;;;;;16.39;68.09;97126.75;5044806;28;20036;-77
2021/07/01 03:05:08;;;;;;;9.63;6.28;;;;;;;16.40;68.23;97141.44;5024067;28;20033;-77
2021/07/01 03:07:34;;;;;;;9.55;7.28;;;;;;;16.43;68.12;97135.63;5047177;28;20025;-77
2021/07/01 03:09:59;;;;;;;8.50;6.32;;;;;;;16.41;68.55;97129.88;5033295;28;20017;-77
2021/07/01 03:12:26;;;;;;;8.35;5.85;;;;;;;16.39;68.74;97127.53;5032688;28;20076;-76
2021/07/01 03:14:51;;;;;;;7.90;6.80;;;;;;;16.44;68.46;97127.47;5053352;28;20067;-77
2021/07/01 03:17:17;;;;;;;8.20;6.10;;;;;;;16.37;68.48;97121.00;5021772;28;20029;-77
2021/07/01 03:19:43;;;;;;;10.00;7.57;;;;;;;16.36;68.80;97124.69;5037545;28;20028;-77
2021/07/01 03:22:08;;;;;;;8.23;6.03;;;;;;;16.32;68.92;97118.44;5050173;28;20036;-77
2021/07/01 03:24:37;;;;;;;9.52;6.30;;;;;;;16.24;69.10;97122.47;5052079;28;20103;-77
2021/07/01 03:27:04;;;;;;;9.25;6.00;;;;;;;16.33;69.08;97120.78;5043964;28;20757;-77
2021/07/01 03:29:30;;;;;;;8.02;6.32;;;;;;;16.36;68.97;97129.94;5035263;28;20028;-77
2021/07/01 03:31:56;;;;;;;10.60;6.65;;;;;;;16.33;69.35;97133.13;5004547;28;20025;-77
2021/07/01 03:34:22;;;;;;;7.90;5.97;;;;;;;16.28;69.39;97134.75;5034711;28;20086;-77
2021/07/01 03:36:47;;;;;;;7.75;5.70;;;;;;;16.36;68.97;97127.31;5057677;28;20040;-77
2021/07/01 03:39:12;;;;;;;7.65;5.97;;;;;;;16.30;69.33;97137.13;5053053;28;20032;-76
2021/07/01 03:41:38;;;;;;;8.88;6.00;;;;;;;16.33;69.16;97138.38;5034742;28;20082;-77
2021/07/01 03:44:04;;;;;;;8.75;6.40;;;;;;;16.32;69.38;97139.47;5058459;28;20044;-77
2021/07/01 03:46:30;;;;;;;7.88;5.65;;;;;;;16.31;69.52;97145.78;5024418;28;20079;-77
2021/07/01 03:48:55;;;;;;;7.95;5.80;;;;;;;16.33;69.45;97146.25;5066134;28;20039;-77
2021/07/01 03:51:21;;;;;;;8.27;5.63;;;;;;;16.33;69.43;97141.00;5042501;28;20029;-77
2021/07/01 03:53:46;;;;;;;5.68;5.07;;;;;;;16.42;68.95;97144.59;5024081;28;20063;-77
2021/07/01 03:56:12;;;;;;;5.93;5.32;;;;;;;16.41;68.62;97145.63;5070824;28;20126;-77
2021/07/01 03:58:37;;;;;;;6.50;5.15;;;;;;;16.42;68.60;97131.44;5054012;28;20040;-77
2021/07/01 04:01:03;;;;;;;5.95;4.88;;;;;;;16.41;68.73;97137.75;5053667;28;20030;-77
2021/07/01 04:03:28;;;;;;;7.80;5.15;;;;;;;16.43;68.92;97135.63;5053696;28;20124;-77
2021/07/01 04:05:54;;;;;;;6.97;5.40;;;;;;;16.45;68.49;97138.75;5066964;28;20103;-77
2021/07/01 04:08:19;;;;;;;8.18;4.80;;;;;;;16.42;68.81;97136.72;5050234;28;20530;-77
2021/07/01 04:10:45;;;;;;;6.75;5.38;;;;;;;16.40;69.10;97134.34;5023429;28;20163;-77
2021/07/01 04:13:10;;;;;;;7.57;5.20;;;;;;;16.39;69.59;97143.28;5033778;28;20444;-77
2021/07/01 04:15:36;;;;;;;7.63;5.80;;;;;;;16.36;69.33;97140.44;5031982;28;20472;-77
2021/07/01 04:18:12;;;;;;;7.25;5.07;;;;;;;16.22;69.40;97135.88;5048006;28;20021;-76
2021/07/01 04:20:37;;;;;;;5.15;4.65;;;;;;;16.45;68.69;97144.81;5032332;28;20037;-76
2021/07/01 04:23:04;;;;;;;6.38;5.20;;;;;;;16.48;68.48;97143.44;5010300;28;20361;-77
2021/07/01 04:25:29;;;;;;;6.90;5.40;;;;;;;16.45;68.28;97149.25;5010969;28;20036;-77
2021/07/01 04:27:54;;;;;;;5.45;4.95;;;;;;;16.38;68.55;97159.34;5070197;28;20759;-77
2021/07/01 04:30:20;;;;;;;5.35;4.43;;;;;;;16.42;68.46;97155.09;5052701;28;20037;-77
2021/07/01 04:32:45;;;;;;;4.32;3.90;;;;;;;16.42;68.32;97155.09;5070047;28;20129;-77
2021/07/01 04:35:10;;;;;;;5.22;4.72;;;;;;;16.45;67.82;97155.31;5049990;28;20036;-77
2021/07/01 04:37:36;;;;;;;5.30;4.57;;;;;;;16.48;68.50;97151.31;5067923;28;20064;-77
2021/07/01 04:40:06;;;;;;;5.15;4.35;;;;;;;16.50;68.12;97143.16;5052272;28;20111;-77
2021/07/01 04:42:31;;;;;;;6.75;5.35;;;;;;;16.51;68.37;97145.50;5023225;28;20391;-77
2021/07/01 04:44:57;;;;;;;6.38;5.50;;;;;;;16.48;68.99;97146.06;5039611;28;20147;-77
2021/07/01 04:47:22;;;;;;;6.78;6.07;;;;;;;16.45;68.43;97147.44;5069376;28;20555;-77
2021/07/01 04:49:47;;;;;;;7.82;5.88;;;;;;;16.47;68.68;97152.41;5070601;28;20035;-77
2021/07/01 04:52:13;;;;;;;7.40;6.03;;;;;;;16.53;68.37;97143.38;5034569;28;20080;-77
2021/07/01 04:54:38;;;;;;;6.15;5.55;;;;;;;16.51;68.63;97148.13;5052870;28;20029;-77
2021/07/01 04:57:04;;;;;;;6.53;5.47;;;;;;;16.55;68.80;97149.13;5035935;28;20025;-77
2021/07/01 04:59:29;;;;;;;8.70;5.50;;;;;;;16.52;69.08;97144.44;5068748;28;20384;-77
2021/07/01 05:01:55;;;;;;;7.70;6.15;;;;;;;16.57;68.61;97149.66;5032351;28;20025;-77
2021/07/01 05:04:21;;;;;;;6.93;6.03;;;;;;;16.56;68.67;97148.06;5031727;28;20521;-77
2021/07/01 05:06:46;;;;;;;8.30;6.45;;;;;;;16.58;68.91;97148.56;5052042;28;20032;-77
2021/07/01 05:09:11;;;;;;;7.35;6.15;;;;;;;16.57;68.57;97139.13;5067741;28;20040;-77
2021/07/01 05:11:37;;;;;;;7.43;6.43;;;;;;;16.60;68.54;97143.78;5051813;28;20757;-77
2021/07/01 05:14:03;;;;;;;8.65;6.53;;;;;;;16.65;67.51;97150.84;5035092;28;20148;-77
2021/07/01 05:16:29;;;;;;;6.88;6.00;;;;;;;16.69;67.62;97151.06;5035012;28;20032;-77
2021/07/01 05:18:59;;;;;;;7.38;5.72;;;;;;;16.71;67.62;97154.19;5031405;28;20070;-77
2021/07/01 05:21:24;;;;;;;5.60;5.00;;;;;;;16.73;66.75;97149.44;5033916;28;20044;-77
2021/07/01 05:23:50;;;;;;;5.82;5.22;;;;;;;16.71;67.20;97147.09;5029048;28;20028;-77
2021/07/01 05:26:16;;;;;;;5.60;4.40;;;;;;;16.78;67.36;97152.00;5052059;28;20067;-77
2021/07/01 05:28:42;;;;;;;5.07;4.63;;;;;;;16.76;67.17;97160.16;5052500;28;20047;-77
2021/07/01 05:31:07;;;;;;;5.78;4.10;;;;;;;16.79;66.71;97153.53;5031805;28;20041;-77
2021/07/01 05:33:32;;;;;;;5.15;3.92;;;;;;;16.79;66.60;97150.91;5046054;28;20364;-76
2021/07/01 05:35:58;;;;;;;5.00;4.13;;;;;;;16.84;67.16;97156.13;5016089;28;20029;-77
2021/07/01 05:38:24;;;;;;;5.47;3.83;;;;;;;16.95;66.52;97156.78;5045640;28;20081;-77
2021/07/01 05:40:50;;;;;;;4.80;4.13;;;;;;;16.95;66.40;97156.78;5034984;28;20024;-77
2021/07/01 05:43:15;;;;;;;5.03;4.40;;;;;;;16.96;66.60;97158.31;5032300;28;20079;-77
2021/07/01 05:45:41;;;;;;;4.40;4.00;;;;;;;16.97;66.00;97154.63;5052278;28;20036;-77
2021/07/01 05:48:08;;;;;;;5.15;4.28;;;;;;;16.94;66.18;97155.22;5050581;28;20033;-76
2021/07/01 05:50:41;;;;;;;5.40;4.68;;;;;;;16.94;66.46;97153.34;5066656;28;20032;-77
2021/07/01 05:53:07;;;;;;;4.82;4.07;;;;;;;16.90;67.04;97164.75;5055502;28;20659;-77
2021/07/01 05:55:33;;;;;;;6.97;4.90;;;;;;;16.82;67.62;97159.00;5051042;28;20032;-77
2021/07/01 05:57:58;;;;;;;7.10;5.75;;;;;;;16.86;67.39;97164.50;5034385;28;20021;-76
2021/07/01 06:00:24;;;;;;;7.45;5.40;;;;;;;16.84;68.01;97169.28;5044611;28;20105;-77
2021/07/01 06:02:50;;;;;;;6.60;5.10;;;;;;;16.85;68.16;97168.22;5048853;28;20181;-77
2021/07/01 06:05:16;;;;;;;6.03;4.97;;;;;;;16.79;68.42;97164.06;5018402;28;20528;-77
2021/07/01 06:07:47;;;;;;;6.35;5.50;;;;;;;16.89;67.43;97173.69;5068267;28;20026;-77
2021/07/01 06:10:16;;;;;;;6.53;5.82;;;;;;;16.77;67.55;97163.56;5051277;28;20033;-77
2021/07/01 06:12:42;;;;;;;8.00;6.28;;;;;;;16.86;67.51;97172.41;5033416;28;20061;-77
2021/07/01 06:15:07;;;;;;;6.13;5.50;;;;;;;16.94;67.03;97163.88;5068323;28;20067;-76
2021/07/01 06:17:34;;;;;;;9.02;6.03;;;;;;;16.92;67.72;97158.13;5021401;28;20029;-77
2021/07/01 06:20:01;;;;;;;7.22;5.10;;;;;;;16.91;67.35;97171.56;5031400;28;20029;-77
2021/07/01 06:22:28;;;;;;;6.35;5.38;;;;;;;16.96;67.66;97163.59;5047658;28;20016;-77
2021/07/01 06:24:55;;;;;;;5.60;5.00;;;;;;;17.11;66.52;97173.88;5034798;28;20042;-77
2021/07/01 06:27:33;;;;;;;6.07;4.72;;;;;;;16.98;66.04;97172.78;5024045;28;20086;-77
2021/07/01 06:30:02;;;;;;;8.95;5.35;;;;;;;17.02;67.30;97175.59;5039744;28;20021;-77
2021/07/01 06:32:28;;;;;;;6.10;4.53;;;;;;;17.12;67.31;97172.03;5033103;28;20032;-77
2021/07/01 06:34:53;;;;;;;5.10;4.15;;;;;;;17.05;67.58;97175.03;5045873;28;20029;-77
2021/07/01 06:37:20;;;;;;;4.95;4.30;;;;;;;17.14;66.64;97169.91;5049499;28;20036;-77
2021/07/01 06:39:47;;;;;;;7.13;4.60;;;;;;;17.13;66.02;97173.59;5067264;28;20393;-77
2021/07/01 06:42:14;;;;;;;4.35;3.60;;;;;;;17.19;65.76;97173.25;5018194;28;20372;-77
2021/07/01 06:44:40;;;;;;;3.33;3.03;;;;;;;17.18;65.84;97178.78;5049003;28;20044;-77
2021/07/01 06:47:07;;;;;;;4.43;3.05;;;;;;;17.14;65.33;97173.31;5051029;28;20043;-77
2021/07/01 06:49:33;;;;;;;3.30;2.78;;;;;;;17.13;65.87;97177.00;5054235;28;20025;-76
2021/07/01 06:52:02;;;;;;;2.90;2.50;;;;;;;17.03;65.72;97182.41;5051602;28;20149;-76
2021/07/01 06:54:29;;;;;;;3.15;2.47;;;;;;;17.13;65.70;97187.53;5037895;28;20050;-77
2021/07/01 06:56:57;;;;;;;2.40;2.13;;;;;;;17.01;66.58;97185.31;5071768;28;20055;-77
2021/07/01 06:59:23;;;;;;;4.10;2.63;;;;;;;17.03;67.91;97192.94;5054949;28;20471;-77
2021/07/01 07:01:49;;;;;;;3.28;2.97;;;;;;;17.05;66.21;97190.81;5040677;28;20040;-77
2021/07/01 07:04:18;;;;;;;3.05;2.75;;;;;;;16.87;67.34;97192.38;5038190;28;20414;-77
2021/07/01 07:06:45;;;;;;;3.05;2.63;;;;;;;17.03;66.05;97193.75;5038350;28;20028;-77
2021/07/01 07:09:13;;;;;;;3.47;2.50;;;;;;;17.07;66.84;97201.03;5041272;28;20050;-77
2021/07/01 07:11:39;;;;;;;3.75;2.40;;;;;;;17.09;65.98;97204.19;5066216;28;20037;-76
2021/07/01 07:14:04;;;;;;;2.75;2.45;;;;;;;17.11;66.16;97202.03;5072486;28;20031;-77
2021/07/01 07:16:30;;;;;;;2.80;2.60;;;;;;;17.06;65.54;97210.00;5054075;28;20163;-77
2021/07/01 07:18:59;;;;;;;2.63;2.00;;;;;;;17.04;65.52;97207.66;5054058;28;20043;-77
2021/07/01 07:21:25;;;;;;;2.50;2.22;;;;;;;16.98;66.40;97206.16;5050193;28;20432;-77
2021/07/01 07:23:55;;;;;;;2.13;1.77;;;;;;;16.99;65.83;97198.00;5036716;28;20115;-77
2021/07/01 07:26:23;;;;;;;2.83;2.10;;;;;;;17.11;65.63;97213.34;5054443;28;20059;-76
2021/07/01 07:28:54;;;;;;;2.10;1.90;;;;;;;17.05;64.58;97219.75;5018350;28;20041;-77
2021/07/01 07:31:29;;;;;;;3.17;2.47;;;;;;;17.04;66.10;97212.94;5017822;28;20606;-77
2021/07/01 07:33:56;;;;;;;2.60;2.33;;;;;;;17.19;65.30;97223.22;5049374;28;20040;-77
2021/07/01 07:36:23;;;;;;;4.32;2.28;;;;;;;17.17;64.66;97206.94;5054386;28;20047;-77
2021/07/01 07:38:52;;;;;;;2.50;1.83;;;;;;;17.21;64.80;97222.94;5052102;28;20032;-76
2021/07/01 07:41:19;;;;;;;4.45;2.60;;;;;;;17.18;64.85;97218.25;5044128;28;20064;-77
2021/07/01 07:43:45;;;;;;;2.20;2.00;;;;;;;17.23;65.47;97232.09;5052448;28;20031;-76
2021/07/01 07:46:11;;;;;;;2.25;1.98;;;;;;;17.25;65.86;97229.19;5054032;28;20051;-77
2021/07/01 07:48:37;;;;;;;2.90;1.90;;;;;;;17.29;65.12;97224.13;5069975;28;20864;-77
2021/07/01 07:51:02;;;;;;;2.80;2.00;;;;;;;17.33;63.65;97222.50;5048293;28;20459;-77
2021/07/01 07:53:33;;;;;;;1.67;1.58;;;;;;;17.12;63.90;97227.28;5036744;28;20488;-76
2021/07/01 07:56:07;;;;;;;2.15;1.63;;;;;;;17.10;64.54;97226.78;5033788;28;20419;-77
2021/07/01 07:58:35;;;;;;;2.28;1.70;;;;;;;17.15;63.92;97222.25;5024367;28;20411;-77
2021/07/01 08:01:01;;;;;;;1.80;1.70;;;;;;;17.20;63.78;97222.16;5053701;28;20039;-77
2021/07/01 08:03:32;;;;;;;2.10;1.90;;;;;;;17.09;64.78;97217.34;5053604;28;20040;-77
2021/07/01 08:05:59;;;;;;;2.20;2.00;;;;;;;17.07;65.85;97222.88;5049828;28;20036;-77
2021/07/01 08:08:25;;;;;;;2.55;2.17;;;;;;;17.19;63.88;97225.84;5017724;28;20029;-76
2021/07/01 08:10:51;;;;;;;2.55;2.00;;;;;;;16.98;65.13;97220.13;5069924;28;20032;-76
2021/07/01 08:13:20;;;;;;;2.45;2.25;;;;;;;16.87;64.82;97237.09;5017224;28;20075;-77
2021/07/01 08:15:46;;;;;;;2.22;2.03;;;;;;;16.90;65.15;97228.63;5030388;28;20033;-76
2021/07/01 08:18:29;;;;;;;2.30;2.10;;;;;;;16.73;65.76;97228.31;5052914;28;20033;-76
2021/07/01 08:20:55;;;;;;;2.55;2.30;;;;;;;16.93;65.27;97235.16;5032031;28;20051;-77
2021/07/01 08:23:20;;;;;;;2.10;1.90;;;;;;;16.93;65.79;97238.59;5040091;28;20025;-77
2021/07/01 08:25:46;;;;;;;2.45;2.25;;;;;;;16.95;65.24;97236.47;5032111;28;20029;-76
2021/07/01 08:28:13;;;;;;;2.63;1.80;;;;;;;17.07;65.28;97237.88;5052732;28;20041;-77
2021/07/01 08:30:38;;;;;;;2.22;1.85;;;;;;;17.12;65.23;97241.22;5052532;28;20029;-77
2021/07/01 08:33:04;;;;;;;2.38;2.13;;;;;;;17.09;65.34;97236.53;5033515;28;20021;-76
2021/07/01 08:35:30;;;;;;;1.85;1.75;;;;;;;17.09;65.48;97241.78;5053136;28;20608;-76
2021/07/01 08:37:59;;;;;;;2.50;1.80;;;;;;;17.07;65.37;97243.13;5017100;28;20028;-77
2021/07/01 08:40:35;;;;;;;2.33;1.80;;;;;;;16.93;65.57;97241.22;5020074;28;20460;-77
2021/07/01 08:43:03;;;;;;;2.70;2.00;;;;;;;17.09;67.14;97233.91;5028021;28;20020;-77
2021/07/01 08:45:41;;;;;;;2.15;1.70;;;;;;;16.96;65.82;97238.00;5028193;28;20659;-76
2021/07/01 08:48:17;;;;;;;2.13;1.92;;;;;;;17.05;65.55;97235.53;5070734;28;20032;-76
2021/07/01 08:50:54;;;;;;;2.10;1.80;;;;;;;17.03;66.83;97241.09;5069347;28;20028;-77
2021/07/01 08:53:57;;;;;;;1.98;1.80;;;;;;;17.02;65.74;97242.13;5047502;28;20495;-77
2021/07/01 08:56:23;;;;;;;2.53;2.33;;;;;;;17.17;65.52;97243.78;5070747;28;20032;-76
2021/07/01 08:58:48;;;;;;;1.90;1.73;;;;;;;17.08;65.17;97249.97;5052384;28;20028;-76
2021/07/01 09:01:18;;;;;;;1.50;1.35;;;;;;;16.94;65.61;97253.28;5052831;28;20031;-76
2021/07/01 09:03:44;;;;;;;1.80;1.70;;;;;;;17.14;65.61;97249.63;5052234;28;20021;-76
2021/07/01 09:06:16;;;;;;;3.30;1.90;;;;;;;17.07;66.41;97240.50;5068625;28;20059;-76
2021/07/01 09:08:43;;;;;;;3.35;1.70;;;;;;;17.31;65.66;97243.84;5035095;28;20068;-76
2021/07/01 09:11:11;;;;;;;2.17;1.98;;;;;;;17.43;65.29;97248.69;5052033;28;20048;-76
2021/07/01 09:13:37;;;;;;;2.20;2.00;;;;;;;17.73;65.01;97243.97;5035331;28;20036;-77
2021/07/01 09:16:04;;;;;;;2.42;2.22;;;;;;;18.03;63.42;97239.31;5052537;28;20032;-75
2021/07/01 09:18:30;;;;;;;2.38;2.15;;;;;;;18.40;62.80;97240.19;5034362;28;20384;-76
2021/07/01 09:20:56;;;;;;;2.17;1.98;;;;;;;18.58;62.09;97241.19;5051096;28;20029;-76
2021/07/01 09:23:22;;;;;;;2.67;1.90;;;;;;;18.78;61.16;97238.13;5068846;28;20040;-76
2021/07/01 09:25:48;;;;;;;3.45;1.83;;;;;;;18.77;60.91;97236.56;5033818;28;20773;-76
2021/07/01 09:28:14;;;;;;;2.22;1.65;;;;;;;18.76;60.15;97237.63;5068616;28;20043;-75
2021/07/01 09:30:42;;;;;;;2.17;1.98;;;;;;;18.61;60.79;97241.38;5018673;28;20056;-76
2021/07/01 09:33:08;;;;;;;1.65;1.48;;;;;;;18.77;61.46;97243.69;5068567;28;20675;-76
2021/07/01 09:35:35;;;;;;;3.97;1.40;;;;;;;18.59;59.47;97243.50;5035510;28;20031;-76
2021/07/01 09:38:05;;;;;;;2.08;1.50;;;;;;;18.53;61.41;97240.19;5069979;28;20499;-76
2021/07/01 09:40:35;;;;;;;1.88;1.77;;;;;;;18.59;61.11;97248.00;5051707;28;20032;-76
2021/07/01 09:43:04;;;;;;;1.83;1.63;;;;;;;18.63;60.96;97243.72;5035780;28;20036;-77
2021/07/01 09:45:32;;;;;;;3.33;2.10;;;;;;;18.67;60.85;97245.44;5028762;28;20380;-77
2021/07/01 09:48:18;;;;;;;2.97;2.10;;;;;;;18.43;64.87;97248.28;5069896;28;20028;-76
2021/07/01 09:50:46;;;;;;;2.70;2.50;;;;;;;18.85;61.34;97246.44;5036704;28;20476;-76
2021/07/01 09:53:28;;;;;;;2.50;2.30;;;;;;;19.03;62.61;97254.50;5045863;28;20032;-76
2021/07/01 09:55:54;;;;;;;3.20;2.90;;;;;;;19.35;58.79;97252.78;5067973;28;20448;-76
2021/07/01 09:58:21;;;;;;;4.68;3.13;;;;;;;19.38;59.38;97254.78;5069534;28;20140;-77
2021/07/01 10:00:52;;;;;;;4.00;3.10;;;;;;;19.00;62.05;97247.94;5048529;28;20021;-77
2021/07/01 10:03:18;;;;;;;4.20;3.60;;;;;;;19.17;61.49;97257.88;5045245;28;20072;-76
2021/07/01 10:05:44;;;;;;;3.33;2.80;;;;;;;19.10;61.63;97257.53;5030924;28;20126;-76
2021/07/01 10:08:10;;;;;;;3.75;2.88;;;;;;;19.20;62.01;97259.16;5014278;28;20358;-77
2021/07/01 10:10:50;;;;;;;3.00;2.67;;;;;;;19.03;60.22;97254.50;5050037;28;20117;-77
2021/07/01 10:13:16;;;;;;;3.20;2.28;;;;;;;19.12;60.84;97249.31;5048471;28;20066;-77
2021/07/01 10:15:43;;;;;;;2.80;2.53;;;;;;;19.23;60.84;97263.84;5041883;28;20068;-76
2021/07/01 10:18:12;;;;;;;3.75;2.35;;;;;;;19.19;59.92;97266.31;5031794;28;20036;-77
2021/07/01 10:20:40;;;;;;;3.33;2.38;;;;;;;19.00;60.88;97257.75;5045342;28;20063;-76
2021/07/01 10:23:25;;;;;;;2.20;2.00;;;;;;;18.59;61.51;97261.19;5039199;28;20025;-76
2021/07/01 10:25:53;;;;;;;3.67;2.25;;;;;;;18.69;60.43;97272.31;5054654;28;20495;-76
2021/07/01 10:28:24;;;;;;;1.83;1.55;;;;;;;18.63;61.23;97264.81;5038405;28;20041;-76
2021/07/01 10:31:00;;;;;;;1.88;1.77;;;;;;;18.47;62.84;97265.09;5038891;28;20372;-76
2021/07/01 10:33:27;;;;;;;2.42;1.42;;;;;;;18.72;61.65;97265.69;5051790;28;20025;-76
2021/07/01 10:35:56;;;;;;;1.90;1.80;;;;;;;18.68;62.27;97267.34;5063343;28;20078;-77
2021/07/01 10:38:22;;;;;;;1.63;1.52;;;;;;;18.91;61.77;97260.31;5049248;28;20097;-77
2021/07/01 10:40:52;;;;;;;2.22;1.80;;;;;;;18.98;62.99;97267.81;5070638;28;20437;-77
2021/07/01 10:43:19;;;;;;;1.63;1.52;;;;;;;19.25;60.10;97259.81;5035436;28;20495;-77
2021/07/01 10:45:58;;;;;;;1.80;1.70;;;;;;;19.17;60.49;97262.38;5035876;28;20048;-77
2021/07/01 10:48:25;;;;;;;2.13;1.63;;;;;;;19.52;59.55;97271.38;5065822;28;20040;-76
2021/07/01 10:50:55;;;;;;;2.40;2.20;;;;;;;19.39;59.46;97269.56;5038377;28;20051;-76
2021/07/01 10:53:26;;;;;;;2.35;1.88;;;;;;;19.30;59.58;97266.09;5055059;28;20482;-76
2021/07/01 10:55:52;;;;;;;2.90;2.15;;;;;;;19.32;59.58;97263.91;5073059;28;20060;-76
2021/07/01 10:58:18;;;;;;;2.70;1.80;;;;;;;19.08;60.45;97270.25;5034714;28;20020;-77
2021/07/01 11:00:45;;;;;;;2.13;1.88;;;;;;;19.02;59.48;97277.50;5054380;28;20371;-77
2021/07/01 11:03:21;;;;;;;2.75;2.30;;;;;;;18.84;60.84;97270.47;5054840;28;20035;-76
2021/07/01 11:05:48;;;;;;;2.88;2.38;;;;;;;18.65;61.95;97268.69;5035209;28;20067;-77
2021/07/01 11:08:43;;;;;;;3.10;2.42;;;;;;;18.38;61.31;97274.75;5071486;28;20036;-77
2021/07/01 11:11:22;;;;;;;3.30;3.00;;;;;;;18.28;62.05;97274.94;5026439;28;20064;-76
2021/07/01 11:13:55;;;;;;;3.50;3.20;;;;;;;18.24;62.81;97279.25;5038020;28;20046;-76
2021/07/01 11:16:31;;;;;;;3.25;2.45;;;;;;;18.08;61.41;97276.88;5038120;28;20067;-76
2021/07/01 11:18:59;;;;;;;2.85;2.17;;;;;;;18.05;61.51;97277.44;5054770;28;20035;-75
2021/07/01 11:21:24;;;;;;;2.70;2.47;;;;;;;18.09;61.95;97278.44;5065079;28;20047;-77
2021/07/01 11:23:52;;;;;;;3.03;2.40;;;;;;;18.04;62.86;97283.00;5054789;28;20379;-77
2021/07/01 11:26:26;;;;;;;3.95;3.10;;;;;;;17.97;61.75;97280.75;5037717;28;20086;-77
2021/07/01 11:28:52;;;;;;;2.97;2.70;;;;;;;18.01;62.94;97279.13;5048114;28;20051;-76
2021/07/01 11:31:18;;;;;;;4.18;2.90;;;;;;;18.05;61.49;97282.72;5054063;28;20068;-77